sensor_id;sensor_type;location;lat;lon;timestamp;temperature;humidity
16625;DHT22;8426;48.496;9.098;2023-07-22T00:01:58;12.10;99.90
16625;DHT22;8426;48.496;9.098;2023-07-22T05:40:33;13.00;99.90
16625;DHT22;8426;48.496;9.098;2023-07-22T05:45:39;13.20;99.90
16625;DHT22;8426;48.496;9.098;2023-07-22T05:50:44;13.50;99.90
16625;DHT22;8426;48.496;9.098;2023-07-22T05:55:49;13.80;99.90
16625;DHT22;8426;48.496;9.098;2023-07-22T06:00:53;14.30;99.90
16625;DHT22;8426;48.496;9.098;2023-07-22T06:05:57;18.20;99.90
16625;DHT22;8426;48.496;9.098;2023-07-22T06:11:02;22.70;99.90
16625;DHT22;8426;48.496;9.098;2023-07-22T06:16:09;24.90;99.90
16625;DHT22;8426;48.496;9.098;2023-07-22T06:21:12;27.20;99.90
16625;DHT22;8426;48.496;9.098;2023-07-22T06:26:17;28.50;98.10
16625;DHT22;8426;48.496;9.098;2023-07-22T06:31:23;30.60;94.40
16625;DHT22;8426;48.496;9.098;2023-07-22T06:36:32;31.40;92.10
16625;DHT22;8426;48.496;9.098;2023-07-22T06:41:38;32.00;91.40
16625;DHT22;8426;48.496;9.098;2023-07-22T06:46:41;32.40;88.40
16625;DHT22;8426;48.496;9.098;2023-07-22T06:51:46;33.10;87.50
16625;DHT22;8426;48.496;9.098;2023-07-22T06:56:51;32.90;84.90
16625;DHT22;8426;48.496;9.098;2023-07-22T07:01:54;32.80;85.30
16625;DHT22;8426;48.496;9.098;2023-07-22T07:06:58;33.50;83.40
16625;DHT22;8426;48.496;9.098;2023-07-22T07:12:04;34.00;79.70
16625;DHT22;8426;48.496;9.098;2023-07-22T07:17:11;34.20;79.50
16625;DHT22;8426;48.496;9.098;2023-07-22T07:22:15;34.10;81.50
16625;DHT22;8426;48.496;9.098;2023-07-22T07:27:25;35.10;77.90
16625;DHT22;8426;48.496;9.098;2023-07-22T07:32:29;35.40;78.50
16625;DHT22;8426;48.496;9.098;2023-07-22T07:37:32;35.20;75.10
16625;DHT22;8426;48.496;9.098;2023-07-22T07:42:37;34.70;75.30
16625;DHT22;8426;48.496;9.098;2023-07-22T07:47:42;35.30;75.80
16625;DHT22;8426;48.496;9.098;2023-07-22T07:52:46;35.10;75.00
16625;DHT22;8426;48.496;9.098;2023-07-22T07:57:52;35.70;74.30
16625;DHT22;8426;48.496;9.098;2023-07-22T08:02:57;35.20;75.20
16625;DHT22;8426;48.496;9.098;2023-07-22T08:08:01;34.80;76.20
16625;DHT22;8426;48.496;9.098;2023-07-22T08:13:07;34.90;72.00
16625;DHT22;8426;48.496;9.098;2023-07-22T08:18:11;35.30;73.20
16625;DHT22;8426;48.496;9.098;2023-07-22T08:23:15;34.40;73.30
16625;DHT22;8426;48.496;9.098;2023-07-22T08:28:23;33.20;73.90
16625;DHT22;8426;48.496;9.098;2023-07-22T08:33:35;33.20;75.80
16625;DHT22;8426;48.496;9.098;2023-07-22T08:38:44;32.80;77.10
16625;DHT22;8426;48.496;9.098;2023-07-22T08:43:51;33.20;76.00
16625;DHT22;8426;48.496;9.098;2023-07-22T08:48:54;32.80;74.70
16625;DHT22;8426;48.496;9.098;2023-07-22T08:53:59;31.20;76.90
16625;DHT22;8426;48.496;9.098;2023-07-22T08:59:14;32.30;75.20
16625;DHT22;8426;48.496;9.098;2023-07-22T09:04:17;32.60;72.40
16625;DHT22;8426;48.496;9.098;2023-07-22T09:09:21;32.30;71.90
16625;DHT22;8426;48.496;9.098;2023-07-22T09:14:26;31.50;71.70
16625;DHT22;8426;48.496;9.098;2023-07-22T09:19:38;30.70;72.90
16625;DHT22;8426;48.496;9.098;2023-07-22T09:24:41;31.60;76.00
16625;DHT22;8426;48.496;9.098;2023-07-22T09:29:46;32.60;70.50
16625;DHT22;8426;48.496;9.098;2023-07-22T09:34:54;32.90;72.30
16625;DHT22;8426;48.496;9.098;2023-07-22T09:39:58;32.10;70.90
16625;DHT22;8426;48.496;9.098;2023-07-22T09:45:06;31.00;73.40
16625;DHT22;8426;48.496;9.098;2023-07-22T09:50:15;31.70;71.10
16625;DHT22;8426;48.496;9.098;2023-07-22T09:55:22;30.60;74.10
16625;DHT22;8426;48.496;9.098;2023-07-22T10:00:29;29.10;74.40
16625;DHT22;8426;48.496;9.098;2023-07-22T10:05:34;28.80;76.20
16625;DHT22;8426;48.496;9.098;2023-07-22T10:10:38;28.90;78.20
16625;DHT22;8426;48.496;9.098;2023-07-22T10:15:45;30.00;75.90
16625;DHT22;8426;48.496;9.098;2023-07-22T10:20:49;29.10;79.70
16625;DHT22;8426;48.496;9.098;2023-07-22T10:25:55;29.20;81.20
16625;DHT22;8426;48.496;9.098;2023-07-22T10:31:02;27.90;80.80
16625;DHT22;8426;48.496;9.098;2023-07-22T10:36:07;27.00;83.40
16625;DHT22;8426;48.496;9.098;2023-07-22T10:41:15;26.90;82.70
16625;DHT22;8426;48.496;9.098;2023-07-22T10:46:33;27.30;81.70
16625;DHT22;8426;48.496;9.098;2023-07-22T10:51:37;26.30;82.20
16625;DHT22;8426;48.496;9.098;2023-07-22T10:56:46;26.30;83.60
16625;DHT22;8426;48.496;9.098;2023-07-22T11:01:54;26.40;82.50
16625;DHT22;8426;48.496;9.098;2023-07-22T11:06:58;26.10;85.60
16625;DHT22;8426;48.496;9.098;2023-07-22T11:12:05;27.00;82.30
16625;DHT22;8426;48.496;9.098;2023-07-22T11:17:10;27.20;86.40
16625;DHT22;8426;48.496;9.098;2023-07-22T11:22:14;27.50;82.80
16625;DHT22;8426;48.496;9.098;2023-07-22T11:27:17;28.50;81.00
16625;DHT22;8426;48.496;9.098;2023-07-22T11:32:22;28.60;77.80
16625;DHT22;8426;48.496;9.098;2023-07-22T11:37:27;29.10;77.80
16625;DHT22;8426;48.496;9.098;2023-07-22T11:42:34;29.50;79.70
16625;DHT22;8426;48.496;9.098;2023-07-22T11:47:39;29.70;79.40
16625;DHT22;8426;48.496;9.098;2023-07-22T11:52:42;29.10;79.80
16625;DHT22;8426;48.496;9.098;2023-07-22T11:57:53;28.30;80.80
16625;DHT22;8426;48.496;9.098;2023-07-22T12:03:05;27.50;79.90
16625;DHT22;8426;48.496;9.098;2023-07-22T12:08:14;27.10;84.30
16625;DHT22;8426;48.496;9.098;2023-07-22T12:13:18;28.10;84.90
16625;DHT22;8426;48.496;9.098;2023-07-22T12:18:23;28.80;80.60
16625;DHT22;8426;48.496;9.098;2023-07-22T12:23:27;27.60;80.40
16625;DHT22;8426;48.496;9.098;2023-07-22T12:28:32;27.90;83.90
16625;DHT22;8426;48.496;9.098;2023-07-22T12:33:38;28.00;81.40
16625;DHT22;8426;48.496;9.098;2023-07-22T12:38:41;27.30;82.60
16625;DHT22;8426;48.496;9.098;2023-07-22T12:43:47;26.80;82.10
16625;DHT22;8426;48.496;9.098;2023-07-22T12:48:53;26.70;84.10
16625;DHT22;8426;48.496;9.098;2023-07-22T12:53:57;26.00;85.20
16625;DHT22;8426;48.496;9.098;2023-07-22T12:59:00;26.90;86.00
16625;DHT22;8426;48.496;9.098;2023-07-22T13:04:05;27.00;81.20
16625;DHT22;8426;48.496;9.098;2023-07-22T13:09:09;26.60;86.70
16625;DHT22;8426;48.496;9.098;2023-07-22T13:14:13;27.80;87.30
16625;DHT22;8426;48.496;9.098;2023-07-22T13:19:18;28.10;82.50
16625;DHT22;8426;48.496;9.098;2023-07-22T13:24:23;28.10;82.50
16625;DHT22;8426;48.496;9.098;2023-07-22T13:29:26;28.40;81.70
16625;DHT22;8426;48.496;9.098;2023-07-22T13:34:33;28.20;79.40
16625;DHT22;8426;48.496;9.098;2023-07-22T13:39:37;27.70;82.80
16625;DHT22;8426;48.496;9.098;2023-07-22T13:44:41;27.50;84.10
16625;DHT22;8426;48.496;9.098;2023-07-22T13:49:45;27.40;84.30
16625;DHT22;8426;48.496;9.098;2023-07-22T13:54:49;27.30;84.10
16625;DHT22;8426;48.496;9.098;2023-07-22T13:59:53;27.10;82.60
16625;DHT22;8426;48.496;9.098;2023-07-22T14:05:00;26.80;84.40
16625;DHT22;8426;48.496;9.098;2023-07-22T14:10:06;26.70;84.30
16625;DHT22;8426;48.496;9.098;2023-07-22T14:15:11;26.80;83.60
16625;DHT22;8426;48.496;9.098;2023-07-22T14:20:18;27.40;84.20
16625;DHT22;8426;48.496;9.098;2023-07-22T14:25:27;27.90;83.20
16625;DHT22;8426;48.496;9.098;2023-07-22T14:30:33;27.60;79.70
16625;DHT22;8426;48.496;9.098;2023-07-22T14:35:38;27.10;80.80
16625;DHT22;8426;48.496;9.098;2023-07-22T14:40:43;26.90;80.60
16625;DHT22;8426;48.496;9.098;2023-07-22T14:45:49;27.40;81.80
16625;DHT22;8426;48.496;9.098;2023-07-22T14:51:02;27.40;80.20
16625;DHT22;8426;48.496;9.098;2023-07-22T14:56:08;27.30;80.60
16625;DHT22;8426;48.496;9.098;2023-07-22T15:01:12;26.90;81.50
16625;DHT22;8426;48.496;9.098;2023-07-22T15:06:19;26.80;80.50
16625;DHT22;8426;48.496;9.098;2023-07-22T15:11:23;26.80;82.10
16625;DHT22;8426;48.496;9.098;2023-07-22T15:16:26;27.00;81.50
16625;DHT22;8426;48.496;9.098;2023-07-22T15:21:31;26.80;81.10
16625;DHT22;8426;48.496;9.098;2023-07-22T15:26:34;26.80;81.80
16625;DHT22;8426;48.496;9.098;2023-07-22T15:31:38;26.50;81.30
16625;DHT22;8426;48.496;9.098;2023-07-22T15:36:42;26.20;80.40
16625;DHT22;8426;48.496;9.098;2023-07-22T15:41:46;26.00;82.00
16625;DHT22;8426;48.496;9.098;2023-07-22T15:46:49;25.90;81.90
16625;DHT22;8426;48.496;9.098;2023-07-22T15:51:54;25.90;79.80
16625;DHT22;8426;48.496;9.098;2023-07-22T15:56:58;25.80;80.50
16625;DHT22;8426;48.496;9.098;2023-07-22T16:02:03;25.70;80.20
16625;DHT22;8426;48.496;9.098;2023-07-22T16:07:14;25.70;80.50
16625;DHT22;8426;48.496;9.098;2023-07-22T16:12:24;25.70;81.30
16625;DHT22;8426;48.496;9.098;2023-07-22T16:17:37;25.70;82.10
16625;DHT22;8426;48.496;9.098;2023-07-22T16:22:49;25.60;81.90
16625;DHT22;8426;48.496;9.098;2023-07-22T16:27:56;25.50;83.40
16625;DHT22;8426;48.496;9.098;2023-07-22T16:33:00;25.40;83.60
16625;DHT22;8426;48.496;9.098;2023-07-22T16:38:14;25.30;84.10
16625;DHT22;8426;48.496;9.098;2023-07-22T16:43:19;25.20;83.90
16625;DHT22;8426;48.496;9.098;2023-07-22T16:48:26;25.20;86.00
16625;DHT22;8426;48.496;9.098;2023-07-22T16:53:31;25.50;85.40
16625;DHT22;8426;48.496;9.098;2023-07-22T16:58:35;25.70;85.00
16625;DHT22;8426;48.496;9.098;2023-07-22T17:03:39;25.40;86.50
16625;DHT22;8426;48.496;9.098;2023-07-22T17:08:45;24.90;85.90
16625;DHT22;8426;48.496;9.098;2023-07-22T17:13:49;24.70;86.00
16625;DHT22;8426;48.496;9.098;2023-07-22T17:18:55;24.40;87.20
16625;DHT22;8426;48.496;9.098;2023-07-22T17:24:07;24.30;89.60
16625;DHT22;8426;48.496;9.098;2023-07-22T17:29:17;24.20;88.40
16625;DHT22;8426;48.496;9.098;2023-07-22T17:34:21;24.10;89.00
16625;DHT22;8426;48.496;9.098;2023-07-22T17:39:34;23.90;89.20
16625;DHT22;8426;48.496;9.098;2023-07-22T17:44:45;23.80;89.50
16625;DHT22;8426;48.496;9.098;2023-07-22T17:49:53;23.70;90.30
16625;DHT22;8426;48.496;9.098;2023-07-22T17:54:59;23.50;90.80
16625;DHT22;8426;48.496;9.098;2023-07-22T18:00:12;23.30;90.40
16625;DHT22;8426;48.496;9.098;2023-07-22T18:05:17;23.10;91.10
16625;DHT22;8426;48.496;9.098;2023-07-22T18:10:26;22.80;91.70
16625;DHT22;8426;48.496;9.098;2023-07-22T18:15:30;22.60;92.70
16625;DHT22;8426;48.496;9.098;2023-07-22T18:20:35;22.40;92.40
16625;DHT22;8426;48.496;9.098;2023-07-22T18:25:50;22.20;92.30
16625;DHT22;8426;48.496;9.098;2023-07-22T18:30:56;22.10;92.60
16625;DHT22;8426;48.496;9.098;2023-07-22T18:36:00;21.90;93.40
16625;DHT22;8426;48.496;9.098;2023-07-22T18:41:16;21.60;93.90
16625;DHT22;8426;48.496;9.098;2023-07-22T18:46:21;21.40;94.00
16625;DHT22;8426;48.496;9.098;2023-07-22T18:51:43;21.10;94.30
16625;DHT22;8426;48.496;9.098;2023-07-22T18:56:48;20.80;95.10
16625;DHT22;8426;48.496;9.098;2023-07-22T19:01:58;20.60;95.30
16625;DHT22;8426;48.496;9.098;2023-07-22T19:07:03;20.40;95.80
16625;DHT22;8426;48.496;9.098;2023-07-22T19:12:09;20.10;96.40
16625;DHT22;8426;48.496;9.098;2023-07-22T19:17:13;19.80;96.60
16625;DHT22;8426;48.496;9.098;2023-07-22T19:22:21;19.70;96.80
16625;DHT22;8426;48.496;9.098;2023-07-22T19:27:28;19.50;97.10
16625;DHT22;8426;48.496;9.098;2023-07-22T19:32:34;19.40;97.30
16625;DHT22;8426;48.496;9.098;2023-07-22T19:37:37;19.20;97.70
16625;DHT22;8426;48.496;9.098;2023-07-22T19:42:45;19.10;97.60
16625;DHT22;8426;48.496;9.098;2023-07-22T19:47:56;18.90;98.70
16625;DHT22;8426;48.496;9.098;2023-07-22T19:52:59;18.80;98.90
16625;DHT22;8426;48.496;9.098;2023-07-22T19:58:10;18.70;99.40
16625;DHT22;8426;48.496;9.098;2023-07-22T20:03:14;18.60;99.40
16625;DHT22;8426;48.496;9.098;2023-07-22T20:08:19;18.50;99.40
16625;DHT22;8426;48.496;9.098;2023-07-22T20:13:25;18.50;99.50
16625;DHT22;8426;48.496;9.098;2023-07-22T20:18:28;18.60;98.80
16625;DHT22;8426;48.496;9.098;2023-07-22T20:23:33;18.40;99.40
16625;DHT22;8426;48.496;9.098;2023-07-22T20:28:38;18.30;99.80
16625;DHT22;8426;48.496;9.098;2023-07-22T20:33:47;18.10;99.90
16625;DHT22;8426;48.496;9.098;2023-07-22T20:38:50;18.00;99.90
16625;DHT22;8426;48.496;9.098;2023-07-22T20:44:16;17.90;99.90
16625;DHT22;8426;48.496;9.098;2023-07-22T20:49:25;17.80;99.90
16625;DHT22;8426;48.496;9.098;2023-07-22T20:54:34;17.90;99.80
16625;DHT22;8426;48.496;9.098;2023-07-22T20:59:39;17.80;99.90
16625;DHT22;8426;48.496;9.098;2023-07-22T21:04:44;17.80;99.70
16625;DHT22;8426;48.496;9.098;2023-07-22T21:09:47;17.80;99.60
16625;DHT22;8426;48.496;9.098;2023-07-22T21:15:00;17.90;99.70
16625;DHT22;8426;48.496;9.098;2023-07-22T21:20:08;17.90;99.60
16625;DHT22;8426;48.496;9.098;2023-07-22T21:25:11;17.90;99.50
16625;DHT22;8426;48.496;9.098;2023-07-22T21:30:18;18.00;99.50
16625;DHT22;8426;48.496;9.098;2023-07-22T21:35:23;17.90;99.50
16625;DHT22;8426;48.496;9.098;2023-07-22T21:40:26;17.80;99.60
16625;DHT22;8426;48.496;9.098;2023-07-22T21:45:35;17.70;99.60
16625;DHT22;8426;48.496;9.098;2023-07-22T21:50:41;17.60;99.90
16625;DHT22;8426;48.496;9.098;2023-07-22T21:55:45;17.50;99.90
16625;DHT22;8426;48.496;9.098;2023-07-22T22:00:51;17.40;99.90
16625;DHT22;8426;48.496;9.098;2023-07-22T22:05:57;17.40;99.90
16625;DHT22;8426;48.496;9.098;2023-07-22T22:11:03;17.20;99.90
16625;DHT22;8426;48.496;9.098;2023-07-22T22:16:08;17.10;99.90
16625;DHT22;8426;48.496;9.098;2023-07-22T22:21:13;17.10;99.90
16625;DHT22;8426;48.496;9.098;2023-07-22T22:26:18;17.20;99.90
16625;DHT22;8426;48.496;9.098;2023-07-22T22:31:25;17.30;99.90
16625;DHT22;8426;48.496;9.098;2023-07-22T22:36:29;17.30;99.90
16625;DHT22;8426;48.496;9.098;2023-07-22T22:41:34;17.30;99.90
16625;DHT22;8426;48.496;9.098;2023-07-22T22:46:42;17.20;99.90
16625;DHT22;8426;48.496;9.098;2023-07-22T22:51:47;17.30;99.90
16625;DHT22;8426;48.496;9.098;2023-07-22T22:56:52;17.30;99.90
16625;DHT22;8426;48.496;9.098;2023-07-22T23:01:58;17.20;99.90
16625;DHT22;8426;48.496;9.098;2023-07-22T23:07:03;17.10;99.90
16625;DHT22;8426;48.496;9.098;2023-07-22T23:12:07;17.10;99.90
16625;DHT22;8426;48.496;9.098;2023-07-22T23:17:12;17.00;99.90
16625;DHT22;8426;48.496;9.098;2023-07-22T23:22:15;16.90;99.90
16625;DHT22;8426;48.496;9.098;2023-07-22T23:27:19;16.80;99.90
16625;DHT22;8426;48.496;9.098;2023-07-22T23:32:25;16.80;99.90
16625;DHT22;8426;48.496;9.098;2023-07-22T23:37:28;16.80;99.90
16625;DHT22;8426;48.496;9.098;2023-07-22T23:42:33;16.70;99.90
16625;DHT22;8426;48.496;9.098;2023-07-22T23:47:39;16.50;99.90
16625;DHT22;8426;48.496;9.098;2023-07-22T23:52:45;16.40;99.90
16625;DHT22;8426;48.496;9.098;2023-07-22T23:57:48;16.40;99.90
